Time,TemperatureF,DewpointF,PressureIn,WindDirection,WindDirectionDegrees,WindSpeedMPH,WindSpeedGustMPH,Humidity,HourlyPrecipIn,Conditions,Clouds,dailyrainin,SoftwareType,DateUTC
2013-05-19 00:01:00,58.6,51.0,29.92,NE,54,7.0,10.0,76,0.00,,,0.00,weatherlink.com 1.10,2013-05-18 22:01:00,
2013-05-19 00:16:00,58.4,51.0,29.92,NE,55,7.0,11.0,76,0.00,,,0.00,weatherlink.com 1.10,2013-05-18 22:16:00,
2013-05-19 00:31:00,58.4,51.0,29.92,NNE,27,6.0,10.0,76,0.00,,,0.00,weatherlink.com 1.10,2013-05-18 22:31:00,
2013-05-19 00:46:00,58.3,51.0,29.92,NE,41,4.0,11.0,77,0.00,,,0.00,weatherlink.com 1.10,2013-05-18 22:46:00,
2013-05-19 01:01:00,57.8,51.0,29.92,ENE,63,3.0,7.0,78,0.00,,,0.00,weatherlink.com 1.10,2013-05-18 23:01:00,
2013-05-19 01:16:00,57.6,51.0,29.92,ENE,68,3.0,6.0,78,0.00,,,0.00,weatherlink.com 1.10,2013-05-18 23:16:00,
2013-05-19 01:31:00,57.1,50.0,29.92,NE,37,3.0,5.0,77,0.00,,,0.00,weatherlink.com 1.10,2013-05-18 23:31:00,
2013-05-19 01:46:00,56.7,49.0,29.93,NE,44,4.0,6.0,76,0.00,,,0.00,weatherlink.com 1.10,2013-05-18 23:46:00,
2013-05-19 02:01:00,56.6,49.0,29.92,NE,41,4.0,7.0,76,0.00,,,0.00,weatherlink.com 1.10,2013-05-19 00:01:00,
2013-05-19 02:16:00,56.5,49.0,29.92,NE,47,4.0,6.0,75,0.00,,,0.00,weatherlink.com 1.10,2013-05-19 00:16:00,
2013-05-19 02:31:00,55.9,48.0,29.92,NNE,24,4.0,6.0,76,0.00,,,0.00,weatherlink.com 1.10,2013-05-19 00:31:00,
2013-05-19 02:46:00,55.7,48.0,29.92,North,5,2.0,4.0,76,0.00,,,0.00,weatherlink.com 1.10,2013-05-19 00:46:00,
2013-05-19 03:01:00,55.3,48.0,29.92,North,349,4.0,4.0,77,0.00,,,0.00,weatherlink.com 1.10,2013-05-19 01:01:00,
2013-05-19 03:16:00,56.5,49.0,29.92,NE,50,1.0,6.0,75,0.00,,,0.00,weatherlink.com 1.10,2013-05-19 01:16:00,
2013-05-19 03:32:00,57.0,48.0,29.92,NE,47,4.0,6.0,72,0.00,,,0.00,weatherlink.com 1.10,2013-05-19 01:32:00,
2013-05-19 03:47:00,56.7,49.0,29.93,ENE,57,5.0,9.0,74,0.00,,,0.00,weatherlink.com 1.10,2013-05-19 01:47:00,
2013-05-19 04:02:00,57.0,49.0,29.93,NNE,24,5.0,9.0,74,0.00,,,0.00,weatherlink.com 1.10,2013-05-19 02:02:00,
2013-05-19 04:17:00,56.8,49.0,29.93,NNE,32,10.0,11.0,74,0.00,,,0.00,weatherlink.com 1.10,2013-05-19 02:17:00,
2013-05-19 04:32:00,56.7,49.0,29.93,ENE,70,9.0,12.0,75,0.00,,,0.00,weatherlink.com 1.10,2013-05-19 02:32:00,
2013-05-19 04:47:00,56.6,49.0,29.93,ENE,63,6.0,11.0,76,0.00,,,0.00,weatherlink.com 1.10,2013-05-19 02:47:00,
2013-05-19 05:02:00,56.1,49.0,29.93,East,79,8.0,9.0,78,0.00,,,0.00,weatherlink.com 1.10,2013-05-19 03:02:00,
2013-05-19 05:17:00,55.9,49.0,29.93,East,96,4.0,7.0,78,0.00,,,0.00,weatherlink.com 1.10,2013-05-19 03:17:00,
2013-05-19 05:32:00,56.0,49.0,29.93,ENE,60,6.0,8.0,77,0.00,,,0.00,weatherlink.com 1.10,2013-05-19 03:32:00,
2013-05-19 05:47:00,55.7,49.0,29.94,NE,49,6.0,7.0,77,0.00,,,0.00,weatherlink.com 1.10,2013-05-19 03:47:00,
2013-05-19 06:02:00,55.2,48.0,29.94,NNE,32,6.0,8.0,78,0.00,,,0.00,weatherlink.com 1.10,2013-05-19 04:02:00,
2013-05-19 06:17:00,55.4,49.0,29.95,NE,54,5.0,10.0,78,0.00,,,0.00,weatherlink.com 1.10,2013-05-19 04:17:00,
2013-05-19 06:32:00,55.5,48.0,29.95,NNE,24,6.0,7.0,77,0.00,,,0.00,weatherlink.com 1.10,2013-05-19 04:32:00,
2013-05-19 06:47:00,55.3,48.0,29.96,NE,38,5.0,8.0,77,0.00,,,0.00,weatherlink.com 1.10,2013-05-19 04:47:00,
2013-05-19 07:02:00,55.3,49.0,29.97,NE,34,6.0,6.0,78,0.00,,,0.00,weatherlink.com 1.10,2013-05-19 05:02:00,
2013-05-19 07:17:00,55.5,49.0,29.97,NE,56,3.0,5.0,78,0.00,,,0.00,weatherlink.com 1.10,2013-05-19 05:17:00,
2013-05-19 07:32:00,56.0,49.0,29.98,ENE,61,5.0,5.0,78,0.00,,,0.00,weatherlink.com 1.10,2013-05-19 05:32:00,
2013-05-19 07:47:00,57.4,50.0,29.98,East,79,3.0,7.0,76,0.00,,,0.00,weatherlink.com 1.10,2013-05-19 05:47:00,
2013-05-19 08:02:00,58.6,51.0,29.98,ENE,70,4.0,7.0,75,0.00,,,0.00,weatherlink.com 1.10,2013-05-19 06:02:00,
2013-05-19 08:17:00,59.5,51.0,29.99,NE,51,7.0,8.0,73,0.00,,,0.00,weatherlink.com 1.10,2013-05-19 06:17:00,
2013-05-19 08:32:00,60.7,51.0,29.99,ENE,61,7.0,10.0,70,0.00,,,0.00,weatherlink.com 1.10,2013-05-19 06:32:00,
2013-05-19 08:47:00,61.3,49.0,30.00,ENE,74,9.0,15.0,65,0.00,,,0.00,weatherlink.com 1.10,2013-05-19 06:47:00,
2013-05-19 09:02:00,61.9,49.0,30.00,East,79,9.0,14.0,62,0.00,,,0.00,weatherlink.com 1.10,2013-05-19 07:02:00,
2013-05-19 09:18:00,62.5,48.0,30.01,East,87,8.0,14.0,59,0.00,,,0.00,weatherlink.com 1.10,2013-05-19 07:18:00,
2013-05-19 09:33:00,62.9,48.0,30.01,East,90,8.0,12.0,59,0.00,,,0.00,weatherlink.com 1.10,2013-05-19 07:33:00,
2013-05-19 09:48:00,63.2,48.0,30.01,East,80,12.0,15.0,57,0.00,,,0.00,weatherlink.com 1.10,2013-05-19 07:48:00,
2013-05-19 10:03:00,63.9,48.0,30.01,NE,46,8.0,18.0,56,0.00,,,0.00,weatherlink.com 1.10,2013-05-19 08:03:00,
2013-05-19 10:18:00,63.9,49.0,30.01,NE,50,11.0,14.0,59,0.00,,,0.00,weatherlink.com 1.10,2013-05-19 08:18:00,
2013-05-19 10:33:00,64.3,48.0,30.01,NE,46,11.0,17.0,55,0.00,,,0.00,weatherlink.com 1.10,2013-05-19 08:33:00,
2013-05-19 10:48:00,64.1,50.0,30.02,ENE,67,13.0,19.0,60,0.00,,,0.00,weatherlink.com 1.10,2013-05-19 08:48:00,
2013-05-19 11:03:00,64.7,48.0,30.02,NE,37,10.0,19.0,56,0.00,,,0.00,weatherlink.com 1.10,2013-05-19 09:03:00,
2013-05-19 11:18:00,64.4,47.0,30.02,ENE,68,12.0,24.0,54,0.00,,,0.00,weatherlink.com 1.10,2013-05-19 09:18:00,
2013-05-19 11:33:00,64.7,47.0,30.02,ENE,67,19.0,22.0,53,0.00,,,0.00,weatherlink.com 1.10,2013-05-19 09:33:00,
2013-05-19 11:48:00,64.9,48.0,30.03,NE,54,13.0,21.0,54,0.00,,,0.00,weatherlink.com 1.10,2013-05-19 09:48:00,
2013-05-19 12:03:00,65.3,48.0,30.03,ENE,75,18.0,21.0,53,0.00,,,0.00,weatherlink.com 1.10,2013-05-19 10:03:00,
2013-05-19 12:18:00,65.1,47.0,30.03,East,80,20.0,25.0,52,0.00,,,0.00,weatherlink.com 1.10,2013-05-19 10:18:00,
2013-05-19 12:33:00,64.7,45.0,30.04,ENE,68,16.0,25.0,50,0.00,,,0.00,weatherlink.com 1.10,2013-05-19 10:33:00,
2013-05-19 12:48:00,65.4,49.0,30.03,NE,50,19.0,26.0,55,0.00,,,0.00,weatherlink.com 1.10,2013-05-19 10:48:00,
2013-05-19 13:03:00,65.8,48.0,30.03,NE,36,20.0,21.0,52,0.00,,,0.00,weatherlink.com 1.10,2013-05-19 11:03:00,
2013-05-19 13:18:00,66.1,48.0,30.03,NE,56,10.0,22.0,53,0.00,,,0.00,weatherlink.com 1.10,2013-05-19 11:18:00,
2013-05-19 13:33:00,65.9,47.0,30.04,NE,40,13.0,23.0,51,0.00,,,0.00,weatherlink.com 1.10,2013-05-19 11:33:00,
2013-05-19 13:48:00,65.6,48.0,30.04,ENE,59,20.0,24.0,54,0.00,,,0.00,weatherlink.com 1.10,2013-05-19 11:48:00,
2013-05-19 14:03:00,65.6,48.0,30.04,ESE,102,11.0,22.0,54,0.00,,,0.00,weatherlink.com 1.10,2013-05-19 12:03:00,
2013-05-19 14:18:00,65.9,48.0,30.04,NNE,27,14.0,21.0,52,0.00,,,0.00,weatherlink.com 1.10,2013-05-19 12:18:00,
2013-05-19 14:33:00,66.5,47.0,30.04,ENE,62,17.0,21.0,50,0.00,,,0.00,weatherlink.com 1.10,2013-05-19 12:33:00,
2013-05-19 14:48:00,66.6,48.0,30.04,North,6,22.0,22.0,52,0.00,,,0.00,weatherlink.com 1.10,2013-05-19 12:48:00,
2013-05-19 15:03:00,66.6,45.0,30.04,NNE,30,19.0,22.0,46,0.00,,,0.00,weatherlink.com 1.10,2013-05-19 13:03:00,
2013-05-19 15:18:00,66.8,43.0,30.05,East,86,12.0,25.0,43,0.00,,,0.00,weatherlink.com 1.10,2013-05-19 13:18:00,
2013-05-19 15:33:00,66.3,44.0,30.05,NE,44,17.0,21.0,44,0.00,,,0.00,weatherlink.com 1.10,2013-05-19 13:33:00,
2013-05-19 15:48:00,66.4,42.0,30.05,ENE,75,15.0,22.0,41,0.00,,,0.00,weatherlink.com 1.10,2013-05-19 13:48:00,
2013-05-19 16:03:00,66.3,42.0,30.05,ENE,70,18.0,26.0,42,0.00,,,0.00,weatherlink.com 1.10,2013-05-19 14:03:00,
2013-05-19 16:18:00,66.6,41.0,30.05,NE,53,15.0,24.0,39,0.00,,,0.00,weatherlink.com 1.10,2013-05-19 14:18:00,
2013-05-19 16:33:00,66.4,43.0,30.04,East,84,21.0,22.0,43,0.00,,,0.00,weatherlink.com 1.10,2013-05-19 14:33:00,
2013-05-19 16:48:00,66.5,43.0,30.05,East,84,17.0,20.0,42,0.00,,,0.00,weatherlink.com 1.10,2013-05-19 14:48:00,
2013-05-19 17:03:00,66.5,43.0,30.05,ENE,61,13.0,20.0,43,0.00,,,0.00,weatherlink.com 1.10,2013-05-19 15:03:00,
2013-05-19 17:18:00,66.1,43.0,30.05,ENE,57,11.0,19.0,44,0.00,,,0.00,weatherlink.com 1.10,2013-05-19 15:18:00,
2013-05-19 17:33:00,65.8,44.0,30.05,ENE,58,15.0,21.0,46,0.00,,,0.00,weatherlink.com 1.10,2013-05-19 15:33:00,
2013-05-19 17:49:00,66.0,44.0,30.06,NNE,32,10.0,17.0,45,0.00,,,0.00,weatherlink.com 1.10,2013-05-19 15:49:00,
2013-05-19 18:04:00,65.8,44.0,30.06,ENE,68,12.0,23.0,45,0.00,,,0.00,weatherlink.com 1.10,2013-05-19 16:04:00,
2013-05-19 18:19:00,65.4,43.0,30.05,ENE,69,12.0,19.0,45,0.00,,,0.00,weatherlink.com 1.10,2013-05-19 16:19:00,
2013-05-19 18:34:00,65.2,44.0,30.05,ENE,78,12.0,19.0,46,0.00,,,0.00,weatherlink.com 1.10,2013-05-19 16:34:00,
2013-05-19 18:49:00,65.3,43.0,30.05,NE,49,13.0,16.0,45,0.00,,,0.00,weatherlink.com 1.10,2013-05-19 16:49:00,
2013-05-19 19:04:00,64.9,43.0,30.05,ENE,77,9.0,18.0,46,0.00,,,0.00,weatherlink.com 1.10,2013-05-19 17:04:00,
2013-05-19 19:19:00,64.6,44.0,30.05,NE,49,10.0,18.0,48,0.00,,,0.00,weatherlink.com 1.10,2013-05-19 17:19:00,
2013-05-19 19:34:00,64.0,45.0,30.05,NE,45,10.0,16.0,50,0.00,,,0.00,weatherlink.com 1.10,2013-05-19 17:34:00,
2013-05-19 19:49:00,63.3,46.0,30.05,ENE,61,11.0,14.0,53,0.00,,,0.00,weatherlink.com 1.10,2013-05-19 17:49:00,
2013-05-19 20:04:00,63.4,46.0,30.06,ENE,66,8.0,13.0,54,0.00,,,0.00,weatherlink.com 1.10,2013-05-19 18:04:00,
2013-05-19 20:19:00,63.3,46.0,30.07,ENE,57,6.0,13.0,54,0.00,,,0.00,weatherlink.com 1.10,2013-05-19 18:19:00,
2013-05-19 20:34:00,61.7,46.0,30.07,ENE,68,8.0,12.0,56,0.00,,,0.00,weatherlink.com 1.10,2013-05-19 18:34:00,
2013-05-19 20:49:00,60.7,46.0,30.07,ENE,64,3.0,9.0,59,0.00,,,0.00,weatherlink.com 1.10,2013-05-19 18:49:00,
2013-05-19 21:04:00,59.8,47.0,30.08,ENE,70,3.0,6.0,62,0.00,,,0.00,weatherlink.com 1.10,2013-05-19 19:04:00,
2013-05-19 21:19:00,59.5,47.0,30.08,NE,34,2.0,3.0,64,0.00,,,0.00,weatherlink.com 1.10,2013-05-19 19:19:00,
2013-05-19 21:34:00,59.3,47.0,30.09,NW,315,0.0,2.0,65,0.00,,,0.00,weatherlink.com 1.10,2013-05-19 19:34:00,
2013-05-19 21:49:00,58.2,47.0,30.09,NNW,329,1.0,3.0,67,0.00,,,0.00,weatherlink.com 1.10,2013-05-19 19:49:00,
2013-05-19 22:04:00,58.3,48.0,30.09,NW,311,1.0,2.0,68,0.00,,,0.00,weatherlink.com 1.10,2013-05-19 20:04:00,
2013-05-19 22:19:00,58.2,48.0,30.09,NW,312,0.0,2.0,68,0.00,,,0.00,weatherlink.com 1.10,2013-05-19 20:19:00,
2013-05-19 22:34:00,58.0,48.0,30.10,NE,46,0.0,0.0,70,0.00,,,0.00,weatherlink.com 1.10,2013-05-19 20:34:00,
2013-05-19 22:49:00,57.9,49.0,30.10,East,82,2.0,2.0,71,0.00,,,0.00,weatherlink.com 1.10,2013-05-19 20:49:00,
2013-05-19 23:04:00,55.7,48.0,30.10,SSW,207,1.0,4.0,75,0.00,,,0.00,weatherlink.com 1.10,2013-05-19 21:04:00,
2013-05-19 23:19:00,56.5,48.0,30.10,WSW,255,0.0,1.0,74,0.00,,,0.00,weatherlink.com 1.10,2013-05-19 21:19:00,
2013-05-19 23:34:00,56.4,48.0,30.10,NW,307,0.0,0.0,74,0.00,,,0.00,weatherlink.com 1.10,2013-05-19 21:34:00,
2013-05-19 23:49:00,56.2,48.0,30.10,NW,308,0.0,0.0,75,0.00,,,0.00,weatherlink.com 1.10,2013-05-19 21:49:00,